sensor_id;sensor_type;location;lat;lon;timestamp;temperature;humidity
16517;DHT22;8371;52.272;9.746;2023-07-13T00:01:29;20.70;53.90
16517;DHT22;8371;52.272;9.746;2023-07-13T00:03:59;20.70;54.00
16517;DHT22;8371;52.272;9.746;2023-07-13T00:06:24;20.70;54.10
16517;DHT22;8371;52.272;9.746;2023-07-13T00:08:50;20.60;54.10
16517;DHT22;8371;52.272;9.746;2023-07-13T00:11:16;20.60;54.30
16517;DHT22;8371;52.272;9.746;2023-07-13T00:13:43;20.50;54.30
16517;DHT22;8371;52.272;9.746;2023-07-13T00:16:10;20.50;54.40
16517;DHT22;8371;52.272;9.746;2023-07-13T00:18:37;20.50;54.50
16517;DHT22;8371;52.272;9.746;2023-07-13T00:21:03;20.50;54.70
16517;DHT22;8371;52.272;9.746;2023-07-13T00:23:34;20.50;54.80
16517;DHT22;8371;52.272;9.746;2023-07-13T00:26:01;20.50;54.80
16517;DHT22;8371;52.272;9.746;2023-07-13T00:28:27;20.40;54.80
16517;DHT22;8371;52.272;9.746;2023-07-13T00:30:53;20.50;55.00
16517;DHT22;8371;52.272;9.746;2023-07-13T00:33:20;20.40;55.10
16517;DHT22;8371;52.272;9.746;2023-07-13T00:35:45;20.40;55.20
16517;DHT22;8371;52.272;9.746;2023-07-13T00:38:12;20.40;55.40
16517;DHT22;8371;52.272;9.746;2023-07-13T00:40:37;20.40;55.40
16517;DHT22;8371;52.272;9.746;2023-07-13T00:43:16;20.40;55.50
16517;DHT22;8371;52.272;9.746;2023-07-13T00:48:17;20.30;55.50
16517;DHT22;8371;52.272;9.746;2023-07-13T00:50:44;20.30;55.60
16517;DHT22;8371;52.272;9.746;2023-07-13T00:53:12;20.30;55.70
16517;DHT22;8371;52.272;9.746;2023-07-13T00:55:39;20.30;55.80
16517;DHT22;8371;52.272;9.746;2023-07-13T00:58:05;20.30;55.80
16517;DHT22;8371;52.272;9.746;2023-07-13T01:00:36;20.20;55.80
16517;DHT22;8371;52.272;9.746;2023-07-13T01:03:04;20.20;55.90
16517;DHT22;8371;52.272;9.746;2023-07-13T01:05:32;20.20;55.90
16517;DHT22;8371;52.272;9.746;2023-07-13T01:07:59;20.10;56.00
16517;DHT22;8371;52.272;9.746;2023-07-13T01:10:25;20.00;56.20
16517;DHT22;8371;52.272;9.746;2023-07-13T01:12:51;20.00;56.40
16517;DHT22;8371;52.272;9.746;2023-07-13T01:15:40;19.90;56.40
16517;DHT22;8371;52.272;9.746;2023-07-13T01:18:09;19.80;56.40
16517;DHT22;8371;52.272;9.746;2023-07-13T01:20:35;19.80;56.50
16517;DHT22;8371;52.272;9.746;2023-07-13T01:23:06;19.70;56.50
16517;DHT22;8371;52.272;9.746;2023-07-13T01:25:34;19.60;56.60
16517;DHT22;8371;52.272;9.746;2023-07-13T01:28:00;19.50;56.70
16517;DHT22;8371;52.272;9.746;2023-07-13T01:30:26;19.50;56.80
16517;DHT22;8371;52.272;9.746;2023-07-13T01:32:51;19.40;56.90
16517;DHT22;8371;52.272;9.746;2023-07-13T01:35:17;19.40;56.90
16517;DHT22;8371;52.272;9.746;2023-07-13T01:37:43;19.30;57.00
16517;DHT22;8371;52.272;9.746;2023-07-13T01:40:11;19.20;57.00
16517;DHT22;8371;52.272;9.746;2023-07-13T01:42:38;19.20;57.20
16517;DHT22;8371;52.272;9.746;2023-07-13T01:45:04;19.20;57.30
16517;DHT22;8371;52.272;9.746;2023-07-13T01:47:30;19.10;57.40
16517;DHT22;8371;52.272;9.746;2023-07-13T01:49:57;19.00;57.50
16517;DHT22;8371;52.272;9.746;2023-07-13T01:52:23;19.00;57.60
16517;DHT22;8371;52.272;9.746;2023-07-13T01:54:49;18.90;57.60
16517;DHT22;8371;52.272;9.746;2023-07-13T01:57:14;18.90;57.70
16517;DHT22;8371;52.272;9.746;2023-07-13T01:59:40;18.90;57.80
16517;DHT22;8371;52.272;9.746;2023-07-13T02:02:06;18.80;57.90
16517;DHT22;8371;52.272;9.746;2023-07-13T02:04:31;18.80;58.00
16517;DHT22;8371;52.272;9.746;2023-07-13T02:06:57;18.70;58.00
16517;DHT22;8371;52.272;9.746;2023-07-13T02:09:23;18.60;58.00
16517;DHT22;8371;52.272;9.746;2023-07-13T02:11:49;18.60;58.10
16517;DHT22;8371;52.272;9.746;2023-07-13T02:14:14;18.60;58.20
16517;DHT22;8371;52.272;9.746;2023-07-13T02:16:41;18.50;58.30
16517;DHT22;8371;52.272;9.746;2023-07-13T02:19:07;18.50;58.30
16517;DHT22;8371;52.272;9.746;2023-07-13T02:21:33;18.40;58.40
16517;DHT22;8371;52.272;9.746;2023-07-13T02:23:59;18.40;58.50
16517;DHT22;8371;52.272;9.746;2023-07-13T02:26:26;18.30;58.50
16517;DHT22;8371;52.272;9.746;2023-07-13T02:28:52;18.30;58.60
16517;DHT22;8371;52.272;9.746;2023-07-13T02:31:18;18.20;58.60
16517;DHT22;8371;52.272;9.746;2023-07-13T02:33:43;18.20;58.80
16517;DHT22;8371;52.272;9.746;2023-07-13T02:36:09;18.10;58.80
16517;DHT22;8371;52.272;9.746;2023-07-13T02:38:35;18.00;58.80
16517;DHT22;8371;52.272;9.746;2023-07-13T02:41:05;18.00;58.90
16517;DHT22;8371;52.272;9.746;2023-07-13T02:43:30;18.00;59.10
16517;DHT22;8371;52.272;9.746;2023-07-13T02:45:56;17.90;59.10
16517;DHT22;8371;52.272;9.746;2023-07-13T02:48:22;17.90;59.20
16517;DHT22;8371;52.272;9.746;2023-07-13T02:50:47;17.80;59.20
16517;DHT22;8371;52.272;9.746;2023-07-13T02:53:13;17.80;59.30
16517;DHT22;8371;52.272;9.746;2023-07-13T02:55:39;17.80;59.40
16517;DHT22;8371;52.272;9.746;2023-07-13T02:58:07;17.70;59.40
16517;DHT22;8371;52.272;9.746;2023-07-13T03:00:32;17.70;59.60
16517;DHT22;8371;52.272;9.746;2023-07-13T03:02:58;17.70;59.60
16517;DHT22;8371;52.272;9.746;2023-07-13T03:05:24;17.70;59.60
16517;DHT22;8371;52.272;9.746;2023-07-13T03:07:50;17.60;59.70
16517;DHT22;8371;52.272;9.746;2023-07-13T03:10:15;17.60;59.70
16517;DHT22;8371;52.272;9.746;2023-07-13T03:12:42;17.60;59.80
16517;DHT22;8371;52.272;9.746;2023-07-13T03:15:08;17.50;59.80
16517;DHT22;8371;52.272;9.746;2023-07-13T03:17:34;17.50;59.90
16517;DHT22;8371;52.272;9.746;2023-07-13T03:20:00;17.50;60.00
16517;DHT22;8371;52.272;9.746;2023-07-13T03:22:25;17.50;60.10
16517;DHT22;8371;52.272;9.746;2023-07-13T03:24:51;17.40;60.10
16517;DHT22;8371;52.272;9.746;2023-07-13T03:27:17;17.40;61.10
16517;DHT22;8371;52.272;9.746;2023-07-13T03:29:43;17.40;60.50
16517;DHT22;8371;52.272;9.746;2023-07-13T03:32:10;17.40;60.50
16517;DHT22;8371;52.272;9.746;2023-07-13T03:34:35;17.40;60.60
16517;DHT22;8371;52.272;9.746;2023-07-13T03:37:01;17.40;60.80
16517;DHT22;8371;52.272;9.746;2023-07-13T03:39:27;17.30;60.90
16517;DHT22;8371;52.272;9.746;2023-07-13T03:41:52;17.30;60.90
16517;DHT22;8371;52.272;9.746;2023-07-13T03:44:18;17.40;61.20
16517;DHT22;8371;52.272;9.746;2023-07-13T03:46:44;17.40;61.20
16517;DHT22;8371;52.272;9.746;2023-07-13T03:49:10;17.40;61.40
16517;DHT22;8371;52.272;9.746;2023-07-13T03:51:36;17.50;62.50
16517;DHT22;8371;52.272;9.746;2023-07-13T03:54:03;17.50;61.90
16517;DHT22;8371;52.272;9.746;2023-07-13T03:56:29;17.60;62.20
16517;DHT22;8371;52.272;9.746;2023-07-13T03:58:56;17.80;62.60
16517;DHT22;8371;52.272;9.746;2023-07-13T04:01:23;17.90;62.80
16517;DHT22;8371;52.272;9.746;2023-07-13T04:03:52;18.10;62.90
16517;DHT22;8371;52.272;9.746;2023-07-13T04:06:20;18.20;62.80
16517;DHT22;8371;52.272;9.746;2023-07-13T04:08:48;18.40;62.70
16517;DHT22;8371;52.272;9.746;2023-07-13T04:11:14;18.60;62.50
16517;DHT22;8371;52.272;9.746;2023-07-13T04:13:40;18.80;62.20
16517;DHT22;8371;52.272;9.746;2023-07-13T04:16:06;18.90;61.80
16517;DHT22;8371;52.272;9.746;2023-07-13T04:18:32;18.90;61.40
16517;DHT22;8371;52.272;9.746;2023-07-13T04:20:57;19.10;61.20
16517;DHT22;8371;52.272;9.746;2023-07-13T04:23:23;19.10;60.90
16517;DHT22;8371;52.272;9.746;2023-07-13T04:25:51;19.20;60.80
16517;DHT22;8371;52.272;9.746;2023-07-13T04:28:24;19.20;60.70
16517;DHT22;8371;52.272;9.746;2023-07-13T04:30:50;19.20;60.70
16517;DHT22;8371;52.272;9.746;2023-07-13T04:33:16;19.20;60.90
16517;DHT22;8371;52.272;9.746;2023-07-13T04:35:43;19.20;61.00
16517;DHT22;8371;52.272;9.746;2023-07-13T04:38:09;19.30;61.20
16517;DHT22;8371;52.272;9.746;2023-07-13T04:40:37;19.40;61.40
16517;DHT22;8371;52.272;9.746;2023-07-13T04:43:03;19.50;61.60
16517;DHT22;8371;52.272;9.746;2023-07-13T04:45:29;19.70;61.70
16517;DHT22;8371;52.272;9.746;2023-07-13T04:47:56;19.90;61.80
16517;DHT22;8371;52.272;9.746;2023-07-13T04:50:22;20.00;61.80
16517;DHT22;8371;52.272;9.746;2023-07-13T04:52:49;20.20;61.80
16517;DHT22;8371;52.272;9.746;2023-07-13T04:55:15;20.40;61.80
16517;DHT22;8371;52.272;9.746;2023-07-13T04:57:41;20.70;61.70
16517;DHT22;8371;52.272;9.746;2023-07-13T05:00:08;20.90;61.60
16517;DHT22;8371;52.272;9.746;2023-07-13T05:02:34;21.10;61.30
16517;DHT22;8371;52.272;9.746;2023-07-13T05:05:01;21.30;61.00
16517;DHT22;8371;52.272;9.746;2023-07-13T05:07:27;21.50;60.80
16517;DHT22;8371;52.272;9.746;2023-07-13T05:09:52;21.80;60.40
16517;DHT22;8371;52.272;9.746;2023-07-13T05:12:18;21.90;60.10
16517;DHT22;8371;52.272;9.746;2023-07-13T05:14:44;22.10;59.90
16517;DHT22;8371;52.272;9.746;2023-07-13T05:17:10;22.30;59.80
16517;DHT22;8371;52.272;9.746;2023-07-13T05:19:35;22.50;59.90
16517;DHT22;8371;52.272;9.746;2023-07-13T05:22:01;22.70;59.70
16517;DHT22;8371;52.272;9.746;2023-07-13T05:24:28;22.90;60.20
16517;DHT22;8371;52.272;9.746;2023-07-13T05:26:54;23.20;59.30
16517;DHT22;8371;52.272;9.746;2023-07-13T05:29:20;23.40;59.70
16517;DHT22;8371;52.272;9.746;2023-07-13T05:31:46;23.60;58.70
16517;DHT22;8371;52.272;9.746;2023-07-13T05:34:12;23.80;58.20
16517;DHT22;8371;52.272;9.746;2023-07-13T05:36:38;23.90;57.70
16517;DHT22;8371;52.272;9.746;2023-07-13T05:39:03;24.00;57.30
16517;DHT22;8371;52.272;9.746;2023-07-13T05:41:29;24.10;57.00
16517;DHT22;8371;52.272;9.746;2023-07-13T05:43:55;24.20;56.80
16517;DHT22;8371;52.272;9.746;2023-07-13T05:46:21;24.30;56.70
16517;DHT22;8371;52.272;9.746;2023-07-13T05:48:47;24.30;56.40
16517;DHT22;8371;52.272;9.746;2023-07-13T05:51:13;24.30;56.20
16517;DHT22;8371;52.272;9.746;2023-07-13T05:53:39;24.40;55.90
16517;DHT22;8371;52.272;9.746;2023-07-13T05:56:05;24.40;55.90
16517;DHT22;8371;52.272;9.746;2023-07-13T05:58:30;24.40;55.70
16517;DHT22;8371;52.272;9.746;2023-07-13T06:01:05;24.40;55.50
16517;DHT22;8371;52.272;9.746;2023-07-13T06:03:32;24.40;55.60
16517;DHT22;8371;52.272;9.746;2023-07-13T06:05:58;24.40;55.50
16517;DHT22;8371;52.272;9.746;2023-07-13T06:08:26;24.40;55.30
16517;DHT22;8371;52.272;9.746;2023-07-13T06:10:52;24.40;55.30
16517;DHT22;8371;52.272;9.746;2023-07-13T06:13:17;24.30;55.80
16517;DHT22;8371;52.272;9.746;2023-07-13T06:15:48;24.40;55.30
16517;DHT22;8371;52.272;9.746;2023-07-13T06:18:14;24.50;55.40
16517;DHT22;8371;52.272;9.746;2023-07-13T06:20:40;24.50;55.30
16517;DHT22;8371;52.272;9.746;2023-07-13T06:23:06;24.60;55.20
16517;DHT22;8371;52.272;9.746;2023-07-13T06:25:31;24.70;55.00
16517;DHT22;8371;52.272;9.746;2023-07-13T06:27:57;24.70;55.00
16517;DHT22;8371;52.272;9.746;2023-07-13T06:30:23;24.80;55.00
16517;DHT22;8371;52.272;9.746;2023-07-13T06:32:49;24.80;55.00
16517;DHT22;8371;52.272;9.746;2023-07-13T06:35:15;24.90;54.90
16517;DHT22;8371;52.272;9.746;2023-07-13T06:37:41;25.00;54.70
16517;DHT22;8371;52.272;9.746;2023-07-13T06:40:07;25.10;54.40
16517;DHT22;8371;52.272;9.746;2023-07-13T06:42:33;25.20;54.40
16517;DHT22;8371;52.272;9.746;2023-07-13T06:44:59;25.30;53.80
16517;DHT22;8371;52.272;9.746;2023-07-13T06:47:24;25.40;53.90
16517;DHT22;8371;52.272;9.746;2023-07-13T06:49:50;25.50;53.80
16517;DHT22;8371;52.272;9.746;2023-07-13T06:52:16;25.60;53.90
16517;DHT22;8371;52.272;9.746;2023-07-13T06:54:41;25.60;53.70
16517;DHT22;8371;52.272;9.746;2023-07-13T06:57:07;25.70;53.40
16517;DHT22;8371;52.272;9.746;2023-07-13T06:59:33;25.90;53.70
16517;DHT22;8371;52.272;9.746;2023-07-13T07:01:58;26.00;53.60
16517;DHT22;8371;52.272;9.746;2023-07-13T07:04:24;26.20;53.40
16517;DHT22;8371;52.272;9.746;2023-07-13T07:06:50;26.20;52.90
16517;DHT22;8371;52.272;9.746;2023-07-13T07:09:15;26.30;52.80
16517;DHT22;8371;52.272;9.746;2023-07-13T07:11:42;26.30;52.50
16517;DHT22;8371;52.272;9.746;2023-07-13T07:14:08;26.40;52.40
16517;DHT22;8371;52.272;9.746;2023-07-13T07:16:34;26.50;52.70
16517;DHT22;8371;52.272;9.746;2023-07-13T07:18:59;26.40;51.80
16517;DHT22;8371;52.272;9.746;2023-07-13T07:21:25;26.50;51.70
16517;DHT22;8371;52.272;9.746;2023-07-13T07:23:52;26.40;51.50
16517;DHT22;8371;52.272;9.746;2023-07-13T07:26:18;26.40;51.60
16517;DHT22;8371;52.272;9.746;2023-07-13T07:28:44;26.30;51.30
16517;DHT22;8371;52.272;9.746;2023-07-13T07:31:10;26.30;51.10
16517;DHT22;8371;52.272;9.746;2023-07-13T07:33:36;26.20;51.10
16517;DHT22;8371;52.272;9.746;2023-07-13T07:36:02;26.30;51.50
16517;DHT22;8371;52.272;9.746;2023-07-13T07:38:28;26.20;51.40
16517;DHT22;8371;52.272;9.746;2023-07-13T07:40:54;26.30;51.40
16517;DHT22;8371;52.272;9.746;2023-07-13T07:43:20;26.30;51.30
16517;DHT22;8371;52.272;9.746;2023-07-13T07:45:46;26.30;51.10
16517;DHT22;8371;52.272;9.746;2023-07-13T07:48:11;26.30;51.20
16517;DHT22;8371;52.272;9.746;2023-07-13T07:50:37;26.30;51.00
16517;DHT22;8371;52.272;9.746;2023-07-13T07:53:05;26.20;50.90
16517;DHT22;8371;52.272;9.746;2023-07-13T07:55:34;26.20;50.90
16517;DHT22;8371;52.272;9.746;2023-07-13T07:58:02;26.20;50.50
16517;DHT22;8371;52.272;9.746;2023-07-13T08:00:28;26.20;50.30
16517;DHT22;8371;52.272;9.746;2023-07-13T08:02:56;26.10;50.20
16517;DHT22;8371;52.272;9.746;2023-07-13T08:05:21;26.00;50.40
16517;DHT22;8371;52.272;9.746;2023-07-13T08:07:47;25.90;50.50
16517;DHT22;8371;52.272;9.746;2023-07-13T08:10:13;25.80;50.20
16517;DHT22;8371;52.272;9.746;2023-07-13T08:12:39;25.90;50.50
16517;DHT22;8371;52.272;9.746;2023-07-13T08:15:08;25.80;50.50
16517;DHT22;8371;52.272;9.746;2023-07-13T08:17:34;25.80;50.10
16517;DHT22;8371;52.272;9.746;2023-07-13T08:20:00;25.80;50.30
16517;DHT22;8371;52.272;9.746;2023-07-13T08:22:27;25.80;50.40
16517;DHT22;8371;52.272;9.746;2023-07-13T08:24:52;25.80;50.50
16517;DHT22;8371;52.272;9.746;2023-07-13T08:27:25;25.80;50.50
16517;DHT22;8371;52.272;9.746;2023-07-13T08:29:52;25.80;50.60
16517;DHT22;8371;52.272;9.746;2023-07-13T08:32:19;25.90;50.70
16517;DHT22;8371;52.272;9.746;2023-07-13T08:34:45;26.00;50.80
16517;DHT22;8371;52.272;9.746;2023-07-13T08:37:11;26.00;50.80
16517;DHT22;8371;52.272;9.746;2023-07-13T08:39:36;26.10;50.60
16517;DHT22;8371;52.272;9.746;2023-07-13T08:42:05;26.10;50.50
16517;DHT22;8371;52.272;9.746;2023-07-13T08:44:57;26.20;50.50
16517;DHT22;8371;52.272;9.746;2023-07-13T08:47:01;26.30;50.50
16517;DHT22;8371;52.272;9.746;2023-07-13T08:49:28;26.40;50.50
16517;DHT22;8371;52.272;9.746;2023-07-13T08:52:02;26.40;50.40
16517;DHT22;8371;52.272;9.746;2023-07-13T08:54:40;26.50;50.20
16517;DHT22;8371;52.272;9.746;2023-07-13T08:57:13;26.60;50.30
16517;DHT22;8371;52.272;9.746;2023-07-13T08:59:39;26.70;50.20
16517;DHT22;8371;52.272;9.746;2023-07-13T09:04:44;26.80;50.10
16517;DHT22;8371;52.272;9.746;2023-07-13T09:10:08;27.00;49.70
16517;DHT22;8371;52.272;9.746;2023-07-13T09:12:40;27.00;49.60
16517;DHT22;8371;52.272;9.746;2023-07-13T09:15:07;27.10;49.60
16517;DHT22;8371;52.272;9.746;2023-07-13T09:17:41;27.20;49.30
16517;DHT22;8371;52.272;9.746;2023-07-13T09:20:17;27.30;49.20
16517;DHT22;8371;52.272;9.746;2023-07-13T09:22:41;27.40;49.20
16517;DHT22;8371;52.272;9.746;2023-07-13T09:25:19;27.50;49.00
16517;DHT22;8371;52.272;9.746;2023-07-13T09:27:43;27.60;49.00
16517;DHT22;8371;52.272;9.746;2023-07-13T09:32:43;27.70;48.70
16517;DHT22;8371;52.272;9.746;2023-07-13T09:35:12;27.70;48.60
16517;DHT22;8371;52.272;9.746;2023-07-13T09:37:40;27.70;48.50
16517;DHT22;8371;52.272;9.746;2023-07-13T09:40:14;27.60;48.40
16517;DHT22;8371;52.272;9.746;2023-07-13T09:42:39;27.70;48.10
16517;DHT22;8371;52.272;9.746;2023-07-13T09:45:05;27.80;48.30
16517;DHT22;8371;52.272;9.746;2023-07-13T09:47:39;27.70;48.20
16517;DHT22;8371;52.272;9.746;2023-07-13T09:50:10;27.70;47.80
16517;DHT22;8371;52.272;9.746;2023-07-13T09:52:47;27.60;47.70
16517;DHT22;8371;52.272;9.746;2023-07-13T09:55:33;27.60;47.80
16517;DHT22;8371;52.272;9.746;2023-07-13T09:58:05;27.50;47.80
16517;DHT22;8371;52.272;9.746;2023-07-13T10:00:31;27.40;47.80
16517;DHT22;8371;52.272;9.746;2023-07-13T10:02:59;27.40;48.10
16517;DHT22;8371;52.272;9.746;2023-07-13T10:05:25;27.40;48.50
16517;DHT22;8371;52.272;9.746;2023-07-13T10:07:51;27.50;48.50
16517;DHT22;8371;52.272;9.746;2023-07-13T10:10:20;27.60;48.30
16517;DHT22;8371;52.272;9.746;2023-07-13T10:12:46;27.70;48.30
16517;DHT22;8371;52.272;9.746;2023-07-13T10:15:22;27.90;48.30
16517;DHT22;8371;52.272;9.746;2023-07-13T10:17:45;28.10;48.20
16517;DHT22;8371;52.272;9.746;2023-07-13T10:20:11;28.30;48.30
16517;DHT22;8371;52.272;9.746;2023-07-13T10:22:54;28.40;48.00
16517;DHT22;8371;52.272;9.746;2023-07-13T10:25:23;28.60;47.80
16517;DHT22;8371;52.272;9.746;2023-07-13T10:27:52;28.80;47.20
16517;DHT22;8371;52.272;9.746;2023-07-13T10:30:30;28.90;46.80
16517;DHT22;8371;52.272;9.746;2023-07-13T10:33:02;29.00;46.70
16517;DHT22;8371;52.272;9.746;2023-07-13T10:35:30;29.10;46.40
16517;DHT22;8371;52.272;9.746;2023-07-13T10:38:03;29.20;46.30
16517;DHT22;8371;52.272;9.746;2023-07-13T10:40:40;29.20;45.90
16517;DHT22;8371;52.272;9.746;2023-07-13T10:43:23;29.30;46.00
16517;DHT22;8371;52.272;9.746;2023-07-13T10:45:40;29.30;45.70
16517;DHT22;8371;52.272;9.746;2023-07-13T10:48:09;29.40;45.70
16517;DHT22;8371;52.272;9.746;2023-07-13T10:50:37;29.50;45.60
16517;DHT22;8371;52.272;9.746;2023-07-13T10:53:27;29.60;45.70
16517;DHT22;8371;52.272;9.746;2023-07-13T10:58:34;29.70;45.50
16517;DHT22;8371;52.272;9.746;2023-07-13T11:01:17;29.70;45.30
16517;DHT22;8371;52.272;9.746;2023-07-13T11:11:46;30.20;45.00
16517;DHT22;8371;52.272;9.746;2023-07-13T11:14:42;30.30;44.90
16517;DHT22;8371;52.272;9.746;2023-07-13T11:22:51;31.00;43.90
16517;DHT22;8371;52.272;9.746;2023-07-13T11:30:43;31.10;42.50
16517;DHT22;8371;52.272;9.746;2023-07-13T11:33:24;31.10;42.50
16517;DHT22;8371;52.272;9.746;2023-07-13T11:38:24;31.20;42.30
16517;DHT22;8371;52.272;9.746;2023-07-13T11:40:53;31.20;42.40
16517;DHT22;8371;52.272;9.746;2023-07-13T11:43:19;31.30;42.20
16517;DHT22;8371;52.272;9.746;2023-07-13T11:45:47;31.30;42.10
16517;DHT22;8371;52.272;9.746;2023-07-13T11:48:28;31.40;42.20
16517;DHT22;8371;52.272;9.746;2023-07-13T11:51:03;31.40;42.00
16517;DHT22;8371;52.272;9.746;2023-07-13T11:53:38;31.50;41.40
16517;DHT22;8371;52.272;9.746;2023-07-13T11:56:05;31.40;40.90
16517;DHT22;8371;52.272;9.746;2023-07-13T11:58:32;31.40;41.20
16517;DHT22;8371;52.272;9.746;2023-07-13T12:01:00;31.40;41.50
16517;DHT22;8371;52.272;9.746;2023-07-13T12:03:27;31.40;41.00
16517;DHT22;8371;52.272;9.746;2023-07-13T12:06:00;31.40;40.70
16517;DHT22;8371;52.272;9.746;2023-07-13T12:08:27;31.40;40.90
16517;DHT22;8371;52.272;9.746;2023-07-13T12:10:59;31.40;41.00
16517;DHT22;8371;52.272;9.746;2023-07-13T12:13:26;31.40;40.70
16517;DHT22;8371;52.272;9.746;2023-07-13T12:15:53;31.50;40.80
16517;DHT22;8371;52.272;9.746;2023-07-13T12:18:23;31.50;40.70
16517;DHT22;8371;52.272;9.746;2023-07-13T12:20:50;31.50;41.00
16517;DHT22;8371;52.272;9.746;2023-07-13T12:23:32;31.50;40.50
16517;DHT22;8371;52.272;9.746;2023-07-13T12:26:01;31.60;40.20
16517;DHT22;8371;52.272;9.746;2023-07-13T12:31:19;31.50;39.60
16517;DHT22;8371;52.272;9.746;2023-07-13T12:33:39;31.40;39.60
16517;DHT22;8371;52.272;9.746;2023-07-13T12:36:06;31.20;39.50
16517;DHT22;8371;52.272;9.746;2023-07-13T12:38:32;31.10;39.60
16517;DHT22;8371;52.272;9.746;2023-07-13T12:40:58;30.80;39.00
16517;DHT22;8371;52.272;9.746;2023-07-13T12:43:25;30.70;39.90
16517;DHT22;8371;52.272;9.746;2023-07-13T12:46:04;30.50;40.50
16517;DHT22;8371;52.272;9.746;2023-07-13T12:48:38;30.40;40.70
16517;DHT22;8371;52.272;9.746;2023-07-13T12:51:09;30.40;41.10
16517;DHT22;8371;52.272;9.746;2023-07-13T12:53:39;30.50;40.90
16517;DHT22;8371;52.272;9.746;2023-07-13T12:56:05;30.60;41.30
16517;DHT22;8371;52.272;9.746;2023-07-13T12:58:39;30.70;41.60
16517;DHT22;8371;52.272;9.746;2023-07-13T13:01:07;30.80;40.60
16517;DHT22;8371;52.272;9.746;2023-07-13T13:03:35;31.00;41.00
16517;DHT22;8371;52.272;9.746;2023-07-13T13:08:46;31.20;40.90
16517;DHT22;8371;52.272;9.746;2023-07-13T13:11:14;31.30;40.50
16517;DHT22;8371;52.272;9.746;2023-07-13T13:13:42;31.30;40.10
16517;DHT22;8371;52.272;9.746;2023-07-13T13:16:14;31.30;39.50
16517;DHT22;8371;52.272;9.746;2023-07-13T13:18:39;31.20;39.20
16517;DHT22;8371;52.272;9.746;2023-07-13T13:21:05;31.20;38.70
16517;DHT22;8371;52.272;9.746;2023-07-13T13:23:31;31.00;39.20
16517;DHT22;8371;52.272;9.746;2023-07-13T13:25:57;30.80;39.30
16517;DHT22;8371;52.272;9.746;2023-07-13T13:28:23;30.50;39.10
16517;DHT22;8371;52.272;9.746;2023-07-13T13:30:50;30.20;39.40
16517;DHT22;8371;52.272;9.746;2023-07-13T13:33:19;30.00;40.00
16517;DHT22;8371;52.272;9.746;2023-07-13T13:35:45;29.90;40.40
16517;DHT22;8371;52.272;9.746;2023-07-13T13:38:16;29.70;40.50
16517;DHT22;8371;52.272;9.746;2023-07-13T13:40:43;29.60;40.80
16517;DHT22;8371;52.272;9.746;2023-07-13T13:43:15;29.60;40.70
16517;DHT22;8371;52.272;9.746;2023-07-13T13:45:42;29.50;40.60
16517;DHT22;8371;52.272;9.746;2023-07-13T13:48:17;29.50;40.60
16517;DHT22;8371;52.272;9.746;2023-07-13T13:50:43;29.50;40.90
16517;DHT22;8371;52.272;9.746;2023-07-13T13:53:12;29.50;41.40
16517;DHT22;8371;52.272;9.746;2023-07-13T13:55:39;29.50;40.90
16517;DHT22;8371;52.272;9.746;2023-07-13T13:58:09;29.30;40.40
16517;DHT22;8371;52.272;9.746;2023-07-13T14:00:38;29.10;40.30
16517;DHT22;8371;52.272;9.746;2023-07-13T14:03:04;28.80;41.00
16517;DHT22;8371;52.272;9.746;2023-07-13T14:05:32;28.40;40.50
16517;DHT22;8371;52.272;9.746;2023-07-13T14:07:58;27.90;40.80
16517;DHT22;8371;52.272;9.746;2023-07-13T14:10:25;27.40;41.00
16517;DHT22;8371;52.272;9.746;2023-07-13T14:12:54;27.00;41.40
16517;DHT22;8371;52.272;9.746;2023-07-13T14:15:25;26.60;42.60
16517;DHT22;8371;52.272;9.746;2023-07-13T14:17:51;26.10;42.50
16517;DHT22;8371;52.272;9.746;2023-07-13T14:20:19;25.70;42.90
16517;DHT22;8371;52.272;9.746;2023-07-13T14:22:46;25.40;43.40
16517;DHT22;8371;52.272;9.746;2023-07-13T14:25:13;25.10;44.30
16517;DHT22;8371;52.272;9.746;2023-07-13T14:27:40;24.80;45.00
16517;DHT22;8371;52.272;9.746;2023-07-13T14:30:14;24.60;45.30
16517;DHT22;8371;52.272;9.746;2023-07-13T14:32:41;24.50;45.60
16517;DHT22;8371;52.272;9.746;2023-07-13T14:35:11;24.40;45.80
16517;DHT22;8371;52.272;9.746;2023-07-13T14:37:39;24.30;45.90
16517;DHT22;8371;52.272;9.746;2023-07-13T14:40:16;24.20;46.10
16517;DHT22;8371;52.272;9.746;2023-07-13T14:42:42;24.10;46.40
16517;DHT22;8371;52.272;9.746;2023-07-13T14:45:17;24.00;46.80
16517;DHT22;8371;52.272;9.746;2023-07-13T14:47:40;23.90;46.90
16517;DHT22;8371;52.272;9.746;2023-07-13T14:50:12;23.80;46.80
16517;DHT22;8371;52.272;9.746;2023-07-13T14:52:39;23.80;46.90
16517;DHT22;8371;52.272;9.746;2023-07-13T14:55:09;23.70;46.70
16517;DHT22;8371;52.272;9.746;2023-07-13T14:57:34;23.50;46.80
16517;DHT22;8371;52.272;9.746;2023-07-13T15:00:00;23.30;46.80
16517;DHT22;8371;52.272;9.746;2023-07-13T15:02:34;23.10;46.90
16517;DHT22;8371;52.272;9.746;2023-07-13T15:05:01;22.90;47.10
16517;DHT22;8371;52.272;9.746;2023-07-13T15:07:27;22.70;47.30
16517;DHT22;8371;52.272;9.746;2023-07-13T15:09:53;22.50;47.40
16517;DHT22;8371;52.272;9.746;2023-07-13T15:12:19;22.30;47.40
16517;DHT22;8371;52.272;9.746;2023-07-13T15:14:45;22.10;47.90
16517;DHT22;8371;52.272;9.746;2023-07-13T15:17:36;22.00;48.10
16517;DHT22;8371;52.272;9.746;2023-07-13T15:20:06;21.80;48.60
16517;DHT22;8371;52.272;9.746;2023-07-13T15:22:31;21.70;48.70
16517;DHT22;8371;52.272;9.746;2023-07-13T15:24:57;21.50;49.60
16517;DHT22;8371;52.272;9.746;2023-07-13T15:27:23;21.40;49.40
16517;DHT22;8371;52.272;9.746;2023-07-13T15:29:48;21.30;49.50
16517;DHT22;8371;52.272;9.746;2023-07-13T15:32:14;21.20;49.70
16517;DHT22;8371;52.272;9.746;2023-07-13T15:34:40;21.10;50.00
16517;DHT22;8371;52.272;9.746;2023-07-13T15:37:16;21.10;50.00
16517;DHT22;8371;52.272;9.746;2023-07-13T15:39:42;21.00;50.00
16517;DHT22;8371;52.272;9.746;2023-07-13T15:42:13;21.00;50.40
16517;DHT22;8371;52.272;9.746;2023-07-13T15:44:39;20.90;50.70
16517;DHT22;8371;52.272;9.746;2023-07-13T15:47:05;20.90;51.10
16517;DHT22;8371;52.272;9.746;2023-07-13T15:49:32;20.90;51.40
16517;DHT22;8371;52.272;9.746;2023-07-13T15:51:58;20.90;51.60
16517;DHT22;8371;52.272;9.746;2023-07-13T15:54:23;20.90;52.00
16517;DHT22;8371;52.272;9.746;2023-07-13T15:56:52;20.90;52.20
16517;DHT22;8371;52.272;9.746;2023-07-13T15:59:19;21.00;52.20
16517;DHT22;8371;52.272;9.746;2023-07-13T16:01:45;21.00;52.40
16517;DHT22;8371;52.272;9.746;2023-07-13T16:04:12;21.00;52.50
16517;DHT22;8371;52.272;9.746;2023-07-13T16:06:40;21.00;52.20
16517;DHT22;8371;52.272;9.746;2023-07-13T16:09:06;21.10;52.20
16517;DHT22;8371;52.272;9.746;2023-07-13T16:11:35;21.10;52.30
16517;DHT22;8371;52.272;9.746;2023-07-13T16:14:01;21.10;52.30
16517;DHT22;8371;52.272;9.746;2023-07-13T16:16:29;21.20;52.50
16517;DHT22;8371;52.272;9.746;2023-07-13T16:18:58;21.20;52.60
16517;DHT22;8371;52.272;9.746;2023-07-13T16:21:27;21.20;52.80
16517;DHT22;8371;52.272;9.746;2023-07-13T16:23:54;21.20;52.70
16517;DHT22;8371;52.272;9.746;2023-07-13T16:26:34;21.30;52.70
16517;DHT22;8371;52.272;9.746;2023-07-13T16:31:41;21.40;52.60